sensor_id;sensor_type;location;lat;lon;timestamp;P1;durP1;ratioP1;P2;durP2;ratioP2
18510;SDS011;9384;48.044;11.616;2022-12-17T00:01:21;39.90;;;18.03;;
18510;SDS011;9384;48.044;11.616;2022-12-17T00:04:05;38.43;;;18.43;;
18510;SDS011;9384;48.044;11.616;2022-12-17T00:06:51;37.40;;;17.53;;
18510;SDS011;9384;48.044;11.616;2022-12-17T00:09:35;34.47;;;17.73;;
18510;SDS011;9384;48.044;11.616;2022-12-17T00:12:19;40.20;;;18.70;;
18510;SDS011;9384;48.044;11.616;2022-12-17T00:15:03;38.50;;;17.53;;
18510;SDS011;9384;48.044;11.616;2022-12-17T00:17:48;38.77;;;19.07;;
18510;SDS011;9384;48.044;11.616;2022-12-17T00:20:32;37.53;;;17.57;;
18510;SDS011;9384;48.044;11.616;2022-12-17T00:23:18;33.10;;;18.23;;
18510;SDS011;9384;48.044;11.616;2022-12-17T00:26:02;35.27;;;16.23;;
18510;SDS011;9384;48.044;11.616;2022-12-17T00:28:46;36.30;;;16.50;;
18510;SDS011;9384;48.044;11.616;2022-12-17T00:31:30;32.90;;;17.27;;
18510;SDS011;9384;48.044;11.616;2022-12-17T00:34:15;34.13;;;16.70;;
18510;SDS011;9384;48.044;11.616;2022-12-17T00:36:59;30.73;;;15.83;;
18510;SDS011;9384;48.044;11.616;2022-12-17T00:39:44;29.33;;;16.43;;
18510;SDS011;9384;48.044;11.616;2022-12-17T00:42:28;29.83;;;15.70;;
18510;SDS011;9384;48.044;11.616;2022-12-17T00:45:13;30.37;;;16.10;;
18510;SDS011;9384;48.044;11.616;2022-12-17T00:47:53;32.40;;;15.90;;
18510;SDS011;9384;48.044;11.616;2022-12-17T00:50:38;31.60;;;16.60;;
18510;SDS011;9384;48.044;11.616;2022-12-17T00:53:22;31.97;;;16.13;;
18510;SDS011;9384;48.044;11.616;2022-12-17T00:56:08;33.40;;;15.67;;
18510;SDS011;9384;48.044;11.616;2022-12-17T00:58:52;37.23;;;16.60;;
18510;SDS011;9384;48.044;11.616;2022-12-17T01:01:36;30.47;;;15.23;;
18510;SDS011;9384;48.044;11.616;2022-12-17T01:04:20;28.53;;;14.63;;
18510;SDS011;9384;48.044;11.616;2022-12-17T01:07:04;30.90;;;14.97;;
18510;SDS011;9384;48.044;11.616;2022-12-17T01:09:48;33.50;;;16.27;;
18510;SDS011;9384;48.044;11.616;2022-12-17T01:12:34;33.53;;;15.37;;
18510;SDS011;9384;48.044;11.616;2022-12-17T01:15:18;32.13;;;16.60;;
18510;SDS011;9384;48.044;11.616;2022-12-17T01:18:02;32.90;;;16.47;;
18510;SDS011;9384;48.044;11.616;2022-12-17T01:20:47;32.83;;;16.77;;
18510;SDS011;9384;48.044;11.616;2022-12-17T01:23:31;35.00;;;16.70;;
18510;SDS011;9384;48.044;11.616;2022-12-17T01:26:15;38.23;;;17.37;;
18510;SDS011;9384;48.044;11.616;2022-12-17T01:29:00;26.90;;;15.20;;
18510;SDS011;9384;48.044;11.616;2022-12-17T01:31:45;30.30;;;15.00;;
18510;SDS011;9384;48.044;11.616;2022-12-17T01:34:29;33.17;;;15.70;;
18510;SDS011;9384;48.044;11.616;2022-12-17T01:37:13;28.67;;;15.07;;
18510;SDS011;9384;48.044;11.616;2022-12-17T01:40:09;31.83;;;16.33;;
18510;SDS011;9384;48.044;11.616;2022-12-17T01:42:53;29.73;;;15.50;;
18510;SDS011;9384;48.044;11.616;2022-12-17T01:45:40;28.83;;;15.13;;
18510;SDS011;9384;48.044;11.616;2022-12-17T01:48:40;33.60;;;15.80;;
18510;SDS011;9384;48.044;11.616;2022-12-17T01:51:27;27.70;;;15.40;;
18510;SDS011;9384;48.044;11.616;2022-12-17T01:54:13;35.23;;;16.07;;
18510;SDS011;9384;48.044;11.616;2022-12-17T01:56:58;29.67;;;15.57;;
18510;SDS011;9384;48.044;11.616;2022-12-17T01:59:44;32.73;;;16.23;;
18510;SDS011;9384;48.044;11.616;2022-12-17T02:02:34;29.87;;;15.53;;
18510;SDS011;9384;48.044;11.616;2022-12-17T02:05:19;28.30;;;15.53;;
18510;SDS011;9384;48.044;11.616;2022-12-17T02:08:10;30.83;;;16.10;;
18510;SDS011;9384;48.044;11.616;2022-12-17T02:11:02;26.80;;;15.00;;
18510;SDS011;9384;48.044;11.616;2022-12-17T02:13:54;35.13;;;16.57;;
18510;SDS011;9384;48.044;11.616;2022-12-17T02:16:46;33.47;;;14.77;;
18510;SDS011;9384;48.044;11.616;2022-12-17T02:19:51;25.73;;;15.03;;
18510;SDS011;9384;48.044;11.616;2022-12-17T02:22:47;27.07;;;14.70;;
18510;SDS011;9384;48.044;11.616;2022-12-17T02:25:41;31.83;;;15.50;;
18510;SDS011;9384;48.044;11.616;2022-12-17T02:28:32;30.20;;;15.03;;
18510;SDS011;9384;48.044;11.616;2022-12-17T02:31:19;32.77;;;15.30;;
18510;SDS011;9384;48.044;11.616;2022-12-17T02:34:05;28.63;;;14.80;;
18510;SDS011;9384;48.044;11.616;2022-12-17T02:36:49;31.80;;;14.70;;
18510;SDS011;9384;48.044;11.616;2022-12-17T02:39:45;29.20;;;14.17;;
18510;SDS011;9384;48.044;11.616;2022-12-17T02:42:29;28.90;;;15.23;;
18510;SDS011;9384;48.044;11.616;2022-12-17T02:45:16;28.93;;;15.27;;
18510;SDS011;9384;48.044;11.616;2022-12-17T02:48:01;30.13;;;14.90;;
18510;SDS011;9384;48.044;11.616;2022-12-17T02:50:47;28.47;;;14.73;;
18510;SDS011;9384;48.044;11.616;2022-12-17T02:53:31;26.13;;;14.47;;
18510;SDS011;9384;48.044;11.616;2022-12-17T02:56:16;27.83;;;14.90;;
18510;SDS011;9384;48.044;11.616;2022-12-17T02:59:00;31.30;;;16.10;;
18510;SDS011;9384;48.044;11.616;2022-12-17T03:01:46;34.13;;;15.93;;
18510;SDS011;9384;48.044;11.616;2022-12-17T03:04:30;35.93;;;15.37;;
18510;SDS011;9384;48.044;11.616;2022-12-17T03:07:14;31.30;;;16.13;;
18510;SDS011;9384;48.044;11.616;2022-12-17T03:09:58;32.17;;;16.53;;
18510;SDS011;9384;48.044;11.616;2022-12-17T03:12:42;30.83;;;15.37;;
18510;SDS011;9384;48.044;11.616;2022-12-17T03:15:27;28.80;;;15.13;;
18510;SDS011;9384;48.044;11.616;2022-12-17T03:18:12;35.67;;;16.00;;
18510;SDS011;9384;48.044;11.616;2022-12-17T03:20:56;29.00;;;15.23;;
18510;SDS011;9384;48.044;11.616;2022-12-17T03:23:40;30.20;;;15.43;;
18510;SDS011;9384;48.044;11.616;2022-12-17T03:26:25;28.17;;;15.63;;
18510;SDS011;9384;48.044;11.616;2022-12-17T03:29:09;28.80;;;15.73;;
18510;SDS011;9384;48.044;11.616;2022-12-17T03:31:53;30.90;;;15.03;;
18510;SDS011;9384;48.044;11.616;2022-12-17T03:34:38;32.53;;;15.83;;
18510;SDS011;9384;48.044;11.616;2022-12-17T03:37:22;31.03;;;15.50;;
18510;SDS011;9384;48.044;11.616;2022-12-17T03:40:07;32.50;;;15.87;;
18510;SDS011;9384;48.044;11.616;2022-12-17T03:42:52;28.43;;;14.63;;
18510;SDS011;9384;48.044;11.616;2022-12-17T03:45:36;29.27;;;15.77;;
18510;SDS011;9384;48.044;11.616;2022-12-17T03:48:20;27.20;;;14.77;;
18510;SDS011;9384;48.044;11.616;2022-12-17T03:51:06;32.30;;;14.90;;
18510;SDS011;9384;48.044;11.616;2022-12-17T03:53:50;31.97;;;16.03;;
18510;SDS011;9384;48.044;11.616;2022-12-17T03:56:35;27.07;;;14.50;;
18510;SDS011;9384;48.044;11.616;2022-12-17T03:59:19;29.17;;;15.10;;
18510;SDS011;9384;48.044;11.616;2022-12-17T04:02:03;31.57;;;16.47;;
18510;SDS011;9384;48.044;11.616;2022-12-17T04:04:48;30.57;;;16.60;;
18510;SDS011;9384;48.044;11.616;2022-12-17T04:07:33;29.10;;;15.33;;
18510;SDS011;9384;48.044;11.616;2022-12-17T04:10:18;31.80;;;15.77;;
18510;SDS011;9384;48.044;11.616;2022-12-17T04:13:02;34.57;;;16.17;;
18510;SDS011;9384;48.044;11.616;2022-12-17T04:15:46;27.80;;;15.37;;
18510;SDS011;9384;48.044;11.616;2022-12-17T04:18:27;33.93;;;16.40;;
18510;SDS011;9384;48.044;11.616;2022-12-17T04:21:12;27.70;;;15.07;;
18510;SDS011;9384;48.044;11.616;2022-12-17T04:23:57;28.90;;;15.30;;
18510;SDS011;9384;48.044;11.616;2022-12-17T04:26:41;31.83;;;15.30;;
18510;SDS011;9384;48.044;11.616;2022-12-17T04:29:26;31.87;;;16.83;;
18510;SDS011;9384;48.044;11.616;2022-12-17T04:32:10;30.70;;;15.90;;
18510;SDS011;9384;48.044;11.616;2022-12-17T04:34:54;29.67;;;15.47;;
18510;SDS011;9384;48.044;11.616;2022-12-17T04:37:38;28.97;;;14.93;;
18510;SDS011;9384;48.044;11.616;2022-12-17T04:40:26;29.40;;;14.77;;
18510;SDS011;9384;48.044;11.616;2022-12-17T04:43:16;27.30;;;14.07;;
18510;SDS011;9384;48.044;11.616;2022-12-17T04:46:00;29.20;;;14.33;;
18510;SDS011;9384;48.044;11.616;2022-12-17T04:48:45;28.60;;;15.37;;
18510;SDS011;9384;48.044;11.616;2022-12-17T04:51:40;28.77;;;15.33;;
18510;SDS011;9384;48.044;11.616;2022-12-17T04:54:24;30.23;;;15.00;;
18510;SDS011;9384;48.044;11.616;2022-12-17T04:57:10;27.87;;;14.87;;
18510;SDS011;9384;48.044;11.616;2022-12-17T04:59:55;30.23;;;14.57;;
18510;SDS011;9384;48.044;11.616;2022-12-17T05:02:54;27.27;;;14.80;;
18510;SDS011;9384;48.044;11.616;2022-12-17T05:05:38;31.23;;;15.50;;
18510;SDS011;9384;48.044;11.616;2022-12-17T05:08:22;31.57;;;15.30;;
18510;SDS011;9384;48.044;11.616;2022-12-17T05:11:12;30.07;;;16.57;;
18510;SDS011;9384;48.044;11.616;2022-12-17T05:13:58;29.40;;;15.53;;
18510;SDS011;9384;48.044;11.616;2022-12-17T05:20:04;31.27;;;15.70;;
18510;SDS011;9384;48.044;11.616;2022-12-17T05:22:49;35.63;;;18.27;;
18510;SDS011;9384;48.044;11.616;2022-12-17T05:25:34;35.27;;;15.97;;
18510;SDS011;9384;48.044;11.616;2022-12-17T05:28:18;31.43;;;16.80;;
18510;SDS011;9384;48.044;11.616;2022-12-17T05:31:03;29.70;;;15.13;;
18510;SDS011;9384;48.044;11.616;2022-12-17T05:33:47;33.03;;;16.23;;
18510;SDS011;9384;48.044;11.616;2022-12-17T05:36:32;35.43;;;16.40;;
18510;SDS011;9384;48.044;11.616;2022-12-17T05:39:16;30.17;;;15.40;;
18510;SDS011;9384;48.044;11.616;2022-12-17T05:42:08;32.57;;;15.87;;
18510;SDS011;9384;48.044;11.616;2022-12-17T05:44:49;38.43;;;16.83;;
18510;SDS011;9384;48.044;11.616;2022-12-17T05:47:35;37.33;;;16.60;;
18510;SDS011;9384;48.044;11.616;2022-12-17T05:50:19;36.47;;;18.00;;
18510;SDS011;9384;48.044;11.616;2022-12-17T05:53:04;31.47;;;16.13;;
18510;SDS011;9384;48.044;11.616;2022-12-17T05:55:57;35.00;;;16.50;;
18510;SDS011;9384;48.044;11.616;2022-12-17T05:58:41;35.50;;;17.80;;
18510;SDS011;9384;48.044;11.616;2022-12-17T06:01:25;42.33;;;19.30;;
18510;SDS011;9384;48.044;11.616;2022-12-17T06:04:11;40.20;;;18.77;;
18510;SDS011;9384;48.044;11.616;2022-12-17T06:06:55;41.70;;;20.00;;
18510;SDS011;9384;48.044;11.616;2022-12-17T06:09:39;33.50;;;17.20;;
18510;SDS011;9384;48.044;11.616;2022-12-17T06:12:23;38.93;;;18.97;;
18510;SDS011;9384;48.044;11.616;2022-12-17T06:15:08;37.07;;;17.67;;
18510;SDS011;9384;48.044;11.616;2022-12-17T06:17:52;40.63;;;17.43;;
18510;SDS011;9384;48.044;11.616;2022-12-17T06:20:38;27.43;;;15.87;;
18510;SDS011;9384;48.044;11.616;2022-12-17T06:23:23;35.50;;;17.13;;
18510;SDS011;9384;48.044;11.616;2022-12-17T06:26:07;34.67;;;16.93;;
18510;SDS011;9384;48.044;11.616;2022-12-17T06:28:52;35.87;;;18.27;;
18510;SDS011;9384;48.044;11.616;2022-12-17T06:31:36;34.97;;;17.97;;
18510;SDS011;9384;48.044;11.616;2022-12-17T06:34:20;36.53;;;19.10;;
18510;SDS011;9384;48.044;11.616;2022-12-17T06:37:05;46.30;;;19.17;;
18510;SDS011;9384;48.044;11.616;2022-12-17T06:39:50;42.03;;;19.20;;
18510;SDS011;9384;48.044;11.616;2022-12-17T06:42:34;39.43;;;17.57;;
18510;SDS011;9384;48.044;11.616;2022-12-17T06:45:18;41.73;;;20.13;;
18510;SDS011;9384;48.044;11.616;2022-12-17T06:48:03;38.87;;;18.37;;
18510;SDS011;9384;48.044;11.616;2022-12-17T06:50:49;42.80;;;20.13;;
18510;SDS011;9384;48.044;11.616;2022-12-17T06:53:36;39.43;;;18.73;;
18510;SDS011;9384;48.044;11.616;2022-12-17T06:56:21;37.03;;;18.97;;
18510;SDS011;9384;48.044;11.616;2022-12-17T06:59:05;45.83;;;20.60;;
18510;SDS011;9384;48.044;11.616;2022-12-17T07:01:48;40.43;;;20.47;;
18510;SDS011;9384;48.044;11.616;2022-12-17T07:04:33;45.47;;;21.60;;
18510;SDS011;9384;48.044;11.616;2022-12-17T07:07:17;45.20;;;20.07;;
18510;SDS011;9384;48.044;11.616;2022-12-17T07:10:03;44.37;;;21.07;;
18510;SDS011;9384;48.044;11.616;2022-12-17T07:12:49;45.27;;;20.93;;
18510;SDS011;9384;48.044;11.616;2022-12-17T07:15:33;41.27;;;19.23;;
18510;SDS011;9384;48.044;11.616;2022-12-17T07:18:17;42.63;;;19.70;;
18510;SDS011;9384;48.044;11.616;2022-12-17T07:21:02;34.70;;;18.00;;
18510;SDS011;9384;48.044;11.616;2022-12-17T07:23:46;35.27;;;17.97;;
18510;SDS011;9384;48.044;11.616;2022-12-17T07:26:34;34.80;;;17.87;;
18510;SDS011;9384;48.044;11.616;2022-12-17T07:29:18;37.47;;;18.93;;
18510;SDS011;9384;48.044;11.616;2022-12-17T07:32:02;38.63;;;19.47;;
18510;SDS011;9384;48.044;11.616;2022-12-17T07:34:47;42.73;;;19.60;;
18510;SDS011;9384;48.044;11.616;2022-12-17T07:37:31;37.13;;;19.77;;
18510;SDS011;9384;48.044;11.616;2022-12-17T07:40:15;38.87;;;19.83;;
18510;SDS011;9384;48.044;11.616;2022-12-17T07:43:08;42.80;;;20.60;;
18510;SDS011;9384;48.044;11.616;2022-12-17T07:45:52;36.53;;;19.43;;
18510;SDS011;9384;48.044;11.616;2022-12-17T07:48:37;37.97;;;19.83;;
18510;SDS011;9384;48.044;11.616;2022-12-17T07:51:21;39.60;;;19.23;;
18510;SDS011;9384;48.044;11.616;2022-12-17T07:54:05;40.57;;;19.47;;
18510;SDS011;9384;48.044;11.616;2022-12-17T07:56:49;39.33;;;18.77;;
18510;SDS011;9384;48.044;11.616;2022-12-17T07:59:35;34.63;;;18.30;;
18510;SDS011;9384;48.044;11.616;2022-12-17T08:02:19;39.70;;;19.57;;
18510;SDS011;9384;48.044;11.616;2022-12-17T08:05:04;40.30;;;20.27;;
18510;SDS011;9384;48.044;11.616;2022-12-17T08:07:48;39.07;;;20.37;;
18510;SDS011;9384;48.044;11.616;2022-12-17T08:10:32;43.83;;;21.40;;
18510;SDS011;9384;48.044;11.616;2022-12-17T08:13:17;39.80;;;20.67;;
18510;SDS011;9384;48.044;11.616;2022-12-17T08:16:02;40.17;;;19.47;;
18510;SDS011;9384;48.044;11.616;2022-12-17T08:22:09;39.60;;;20.47;;
18510;SDS011;9384;48.044;11.616;2022-12-17T08:24:53;42.63;;;21.53;;
18510;SDS011;9384;48.044;11.616;2022-12-17T08:27:53;45.90;;;21.03;;
18510;SDS011;9384;48.044;11.616;2022-12-17T08:30:38;42.67;;;20.97;;
18510;SDS011;9384;48.044;11.616;2022-12-17T08:33:24;41.03;;;19.70;;
18510;SDS011;9384;48.044;11.616;2022-12-17T08:36:09;42.87;;;19.87;;
18510;SDS011;9384;48.044;11.616;2022-12-17T08:38:53;39.87;;;19.37;;
18510;SDS011;9384;48.044;11.616;2022-12-17T08:41:38;39.47;;;20.80;;
18510;SDS011;9384;48.044;11.616;2022-12-17T08:44:22;39.97;;;20.93;;
18510;SDS011;9384;48.044;11.616;2022-12-17T08:47:06;34.37;;;18.97;;
18510;SDS011;9384;48.044;11.616;2022-12-17T08:49:53;39.37;;;19.53;;
18510;SDS011;9384;48.044;11.616;2022-12-17T08:52:37;36.30;;;19.30;;
18510;SDS011;9384;48.044;11.616;2022-12-17T08:55:21;38.40;;;18.20;;
18510;SDS011;9384;48.044;11.616;2022-12-17T08:58:06;29.33;;;15.97;;
18510;SDS011;9384;48.044;11.616;2022-12-17T09:00:51;29.37;;;14.83;;
18510;SDS011;9384;48.044;11.616;2022-12-17T09:03:35;33.80;;;16.73;;
18510;SDS011;9384;48.044;11.616;2022-12-17T09:06:17;31.93;;;15.97;;
18510;SDS011;9384;48.044;11.616;2022-12-17T09:09:01;28.97;;;15.60;;
18510;SDS011;9384;48.044;11.616;2022-12-17T09:11:46;29.67;;;15.53;;
18510;SDS011;9384;48.044;11.616;2022-12-17T09:14:30;30.97;;;15.47;;
18510;SDS011;9384;48.044;11.616;2022-12-17T09:17:14;26.80;;;14.00;;
18510;SDS011;9384;48.044;11.616;2022-12-17T09:19:58;32.73;;;14.63;;
18510;SDS011;9384;48.044;11.616;2022-12-17T09:22:44;29.07;;;14.33;;
18510;SDS011;9384;48.044;11.616;2022-12-17T09:25:27;33.40;;;14.97;;
18510;SDS011;9384;48.044;11.616;2022-12-17T09:28:11;25.93;;;13.63;;
18510;SDS011;9384;48.044;11.616;2022-12-17T09:30:57;35.27;;;15.17;;
18510;SDS011;9384;48.044;11.616;2022-12-17T09:33:42;26.13;;;14.37;;
18510;SDS011;9384;48.044;11.616;2022-12-17T09:36:26;24.43;;;13.43;;
18510;SDS011;9384;48.044;11.616;2022-12-17T09:39:11;26.53;;;14.97;;
18510;SDS011;9384;48.044;11.616;2022-12-17T09:41:57;23.27;;;12.90;;
18510;SDS011;9384;48.044;11.616;2022-12-17T09:44:49;26.57;;;13.00;;
18510;SDS011;9384;48.044;11.616;2022-12-17T09:47:42;23.60;;;12.43;;
18510;SDS011;9384;48.044;11.616;2022-12-17T09:50:33;24.23;;;11.97;;
18510;SDS011;9384;48.044;11.616;2022-12-17T09:53:20;27.53;;;12.57;;
18510;SDS011;9384;48.044;11.616;2022-12-17T09:56:26;18.67;;;11.33;;
18510;SDS011;9384;48.044;11.616;2022-12-17T09:59:16;25.33;;;12.47;;
18510;SDS011;9384;48.044;11.616;2022-12-17T10:02:04;20.17;;;12.13;;
18510;SDS011;9384;48.044;11.616;2022-12-17T10:04:55;18.67;;;11.70;;
18510;SDS011;9384;48.044;11.616;2022-12-17T10:07:41;22.03;;;12.00;;
18510;SDS011;9384;48.044;11.616;2022-12-17T10:10:30;19.53;;;10.83;;
18510;SDS011;9384;48.044;11.616;2022-12-17T10:13:17;20.13;;;11.37;;
18510;SDS011;9384;48.044;11.616;2022-12-17T10:16:15;21.97;;;11.57;;
18510;SDS011;9384;48.044;11.616;2022-12-17T10:19:02;18.53;;;10.93;;
18510;SDS011;9384;48.044;11.616;2022-12-17T10:21:48;23.10;;;11.30;;
18510;SDS011;9384;48.044;11.616;2022-12-17T10:24:42;24.53;;;12.07;;
18510;SDS011;9384;48.044;11.616;2022-12-17T10:27:27;19.43;;;11.10;;
18510;SDS011;9384;48.044;11.616;2022-12-17T10:30:15;22.13;;;11.77;;
18510;SDS011;9384;48.044;11.616;2022-12-17T10:33:03;21.23;;;12.13;;
18510;SDS011;9384;48.044;11.616;2022-12-17T10:35:48;18.57;;;11.37;;
18510;SDS011;9384;48.044;11.616;2022-12-17T10:38:32;21.33;;;11.80;;
18510;SDS011;9384;48.044;11.616;2022-12-17T10:41:18;18.10;;;11.50;;
18510;SDS011;9384;48.044;11.616;2022-12-17T10:44:17;18.93;;;11.83;;
18510;SDS011;9384;48.044;11.616;2022-12-17T10:47:04;16.50;;;11.50;;
18510;SDS011;9384;48.044;11.616;2022-12-17T10:49:55;18.47;;;11.77;;
18510;SDS011;9384;48.044;11.616;2022-12-17T10:52:42;17.60;;;10.27;;
18510;SDS011;9384;48.044;11.616;2022-12-17T10:55:28;19.60;;;10.90;;
18510;SDS011;9384;48.044;11.616;2022-12-17T10:58:15;18.33;;;11.23;;
18510;SDS011;9384;48.044;11.616;2022-12-17T11:01:02;18.07;;;11.03;;
18510;SDS011;9384;48.044;11.616;2022-12-17T11:03:49;19.43;;;11.30;;
18510;SDS011;9384;48.044;11.616;2022-12-17T11:06:35;18.93;;;11.70;;
18510;SDS011;9384;48.044;11.616;2022-12-17T11:09:29;21.97;;;12.27;;
18510;SDS011;9384;48.044;11.616;2022-12-17T11:12:18;18.37;;;10.70;;
18510;SDS011;9384;48.044;11.616;2022-12-17T11:15:10;19.77;;;11.17;;
18510;SDS011;9384;48.044;11.616;2022-12-17T11:18:00;19.43;;;12.03;;
18510;SDS011;9384;48.044;11.616;2022-12-17T11:20:49;18.70;;;11.33;;
18510;SDS011;9384;48.044;11.616;2022-12-17T11:23:38;20.20;;;11.17;;
18510;SDS011;9384;48.044;11.616;2022-12-17T11:26:27;17.80;;;10.80;;
18510;SDS011;9384;48.044;11.616;2022-12-17T11:29:15;19.03;;;11.10;;
18510;SDS011;9384;48.044;11.616;2022-12-17T11:32:04;21.57;;;11.93;;
18510;SDS011;9384;48.044;11.616;2022-12-17T11:35:13;16.90;;;11.07;;
18510;SDS011;9384;48.044;11.616;2022-12-17T11:38:03;21.50;;;13.30;;
18510;SDS011;9384;48.044;11.616;2022-12-17T11:40:53;21.93;;;13.40;;
18510;SDS011;9384;48.044;11.616;2022-12-17T11:43:39;23.23;;;12.97;;
18510;SDS011;9384;48.044;11.616;2022-12-17T11:46:28;19.60;;;12.50;;
18510;SDS011;9384;48.044;11.616;2022-12-17T11:49:18;21.37;;;13.20;;
18510;SDS011;9384;48.044;11.616;2022-12-17T11:52:07;23.27;;;13.10;;
18510;SDS011;9384;48.044;11.616;2022-12-17T11:54:56;18.70;;;12.57;;
18510;SDS011;9384;48.044;11.616;2022-12-17T11:57:45;21.37;;;13.30;;
18510;SDS011;9384;48.044;11.616;2022-12-17T12:00:38;21.70;;;13.97;;
18510;SDS011;9384;48.044;11.616;2022-12-17T12:03:27;21.77;;;13.77;;
18510;SDS011;9384;48.044;11.616;2022-12-17T12:06:16;25.80;;;13.53;;
18510;SDS011;9384;48.044;11.616;2022-12-17T12:09:07;21.27;;;12.47;;
18510;SDS011;9384;48.044;11.616;2022-12-17T12:12:02;21.10;;;12.93;;
18510;SDS011;9384;48.044;11.616;2022-12-17T12:14:53;19.73;;;12.40;;
18510;SDS011;9384;48.044;11.616;2022-12-17T12:17:47;18.63;;;12.10;;
18510;SDS011;9384;48.044;11.616;2022-12-17T12:20:44;17.60;;;11.57;;
18510;SDS011;9384;48.044;11.616;2022-12-17T12:23:45;21.53;;;12.80;;
18510;SDS011;9384;48.044;11.616;2022-12-17T12:26:42;19.93;;;12.10;;
18510;SDS011;9384;48.044;11.616;2022-12-17T12:29:35;23.67;;;12.93;;
18510;SDS011;9384;48.044;11.616;2022-12-17T12:32:27;19.80;;;11.33;;
18510;SDS011;9384;48.044;11.616;2022-12-17T12:35:19;21.43;;;12.60;;
18510;SDS011;9384;48.044;11.616;2022-12-17T12:38:08;24.30;;;12.53;;
18510;SDS011;9384;48.044;11.616;2022-12-17T12:41:01;17.87;;;11.00;;
18510;SDS011;9384;48.044;11.616;2022-12-17T12:43:54;22.33;;;12.53;;
18510;SDS011;9384;48.044;11.616;2022-12-17T12:46:45;20.23;;;12.07;;
18510;SDS011;9384;48.044;11.616;2022-12-17T12:49:40;20.57;;;12.13;;
18510;SDS011;9384;48.044;11.616;2022-12-17T12:52:33;19.37;;;11.17;;
18510;SDS011;9384;48.044;11.616;2022-12-17T12:55:17;18.33;;;11.53;;
18510;SDS011;9384;48.044;11.616;2022-12-17T12:58:22;18.33;;;10.97;;
18510;SDS011;9384;48.044;11.616;2022-12-17T13:01:08;18.03;;;11.83;;
18510;SDS011;9384;48.044;11.616;2022-12-17T13:03:54;20.43;;;12.23;;
18510;SDS011;9384;48.044;11.616;2022-12-17T13:06:42;22.20;;;12.00;;
18510;SDS011;9384;48.044;11.616;2022-12-17T13:09:30;23.03;;;12.80;;
18510;SDS011;9384;48.044;11.616;2022-12-17T13:14:53;20.87;;;12.33;;
18510;SDS011;9384;48.044;11.616;2022-12-17T13:17:31;22.97;;;12.43;;
18510;SDS011;9384;48.044;11.616;2022-12-17T13:20:19;19.77;;;11.97;;
18510;SDS011;9384;48.044;11.616;2022-12-17T13:22:49;20.60;;;12.27;;
18510;SDS011;9384;48.044;11.616;2022-12-17T13:25:18;19.67;;;12.07;;
18510;SDS011;9384;48.044;11.616;2022-12-17T13:27:46;25.57;;;12.67;;
18510;SDS011;9384;48.044;11.616;2022-12-17T13:30:21;21.30;;;13.03;;
18510;SDS011;9384;48.044;11.616;2022-12-17T13:33:00;20.97;;;12.30;;
18510;SDS011;9384;48.044;11.616;2022-12-17T13:35:35;22.30;;;13.70;;
18510;SDS011;9384;48.044;11.616;2022-12-17T13:38:10;22.40;;;12.43;;
18510;SDS011;9384;48.044;11.616;2022-12-17T13:40:44;22.37;;;13.70;;
18510;SDS011;9384;48.044;11.616;2022-12-17T13:43:21;27.10;;;14.47;;
18510;SDS011;9384;48.044;11.616;2022-12-17T13:45:52;23.33;;;13.83;;
18510;SDS011;9384;48.044;11.616;2022-12-17T13:48:21;26.43;;;15.37;;
18510;SDS011;9384;48.044;11.616;2022-12-17T13:50:55;29.63;;;16.90;;
18510;SDS011;9384;48.044;11.616;2022-12-17T13:53:23;33.23;;;16.80;;
18510;SDS011;9384;48.044;11.616;2022-12-17T13:55:51;34.73;;;18.27;;
18510;SDS011;9384;48.044;11.616;2022-12-17T13:58:23;32.17;;;17.13;;
18510;SDS011;9384;48.044;11.616;2022-12-17T14:01:02;30.37;;;18.03;;
18510;SDS011;9384;48.044;11.616;2022-12-17T14:03:30;32.73;;;18.87;;
18510;SDS011;9384;48.044;11.616;2022-12-17T14:05:58;35.23;;;19.50;;
18510;SDS011;9384;48.044;11.616;2022-12-17T14:08:26;39.60;;;20.53;;
18510;SDS011;9384;48.044;11.616;2022-12-17T14:10:56;37.03;;;20.20;;
18510;SDS011;9384;48.044;11.616;2022-12-17T14:13:44;37.00;;;20.00;;
18510;SDS011;9384;48.044;11.616;2022-12-17T14:16:13;36.63;;;19.87;;
18510;SDS011;9384;48.044;11.616;2022-12-17T14:18:41;36.90;;;21.50;;
18510;SDS011;9384;48.044;11.616;2022-12-17T14:21:12;37.43;;;20.30;;
18510;SDS011;9384;48.044;11.616;2022-12-17T14:23:40;37.27;;;20.17;;
18510;SDS011;9384;48.044;11.616;2022-12-17T14:26:07;44.63;;;22.33;;
18510;SDS011;9384;48.044;11.616;2022-12-17T14:28:36;41.17;;;22.27;;
18510;SDS011;9384;48.044;11.616;2022-12-17T14:31:14;42.03;;;22.17;;
18510;SDS011;9384;48.044;11.616;2022-12-17T14:33:44;42.70;;;20.87;;
18510;SDS011;9384;48.044;11.616;2022-12-17T14:36:17;40.03;;;22.07;;
18510;SDS011;9384;48.044;11.616;2022-12-17T14:38:52;39.63;;;20.07;;
18510;SDS011;9384;48.044;11.616;2022-12-17T14:41:19;38.60;;;20.13;;
18510;SDS011;9384;48.044;11.616;2022-12-17T14:44:21;35.17;;;19.57;;
18510;SDS011;9384;48.044;11.616;2022-12-17T14:46:52;39.17;;;21.20;;
18510;SDS011;9384;48.044;11.616;2022-12-17T14:49:38;41.03;;;20.43;;
18510;SDS011;9384;48.044;11.616;2022-12-17T14:52:57;40.97;;;20.70;;
18510;SDS011;9384;48.044;11.616;2022-12-17T14:55:30;37.00;;;19.63;;
18510;SDS011;9384;48.044;11.616;2022-12-17T14:58:06;42.43;;;20.20;;
18510;SDS011;9384;48.044;11.616;2022-12-17T15:00:41;40.47;;;20.83;;
18510;SDS011;9384;48.044;11.616;2022-12-17T15:03:12;45.27;;;21.83;;
18510;SDS011;9384;48.044;11.616;2022-12-17T15:05:44;42.50;;;21.37;;
18510;SDS011;9384;48.044;11.616;2022-12-17T15:08:16;43.20;;;21.07;;
18510;SDS011;9384;48.044;11.616;2022-12-17T15:10:43;39.90;;;20.83;;
18510;SDS011;9384;48.044;11.616;2022-12-17T15:13:10;46.57;;;20.70;;
18510;SDS011;9384;48.044;11.616;2022-12-17T15:15:37;36.23;;;20.60;;
18510;SDS011;9384;48.044;11.616;2022-12-17T15:18:04;40.40;;;20.90;;
18510;SDS011;9384;48.044;11.616;2022-12-17T15:20:31;44.20;;;22.30;;
18510;SDS011;9384;48.044;11.616;2022-12-17T15:22:57;45.37;;;22.23;;
18510;SDS011;9384;48.044;11.616;2022-12-17T15:25:27;38.10;;;20.50;;
18510;SDS011;9384;48.044;11.616;2022-12-17T15:27:54;43.20;;;20.83;;
18510;SDS011;9384;48.044;11.616;2022-12-17T15:30:21;40.77;;;20.77;;
18510;SDS011;9384;48.044;11.616;2022-12-17T15:32:48;35.37;;;18.77;;
18510;SDS011;9384;48.044;11.616;2022-12-17T15:35:15;39.97;;;19.60;;
18510;SDS011;9384;48.044;11.616;2022-12-17T15:37:41;36.57;;;18.90;;
18510;SDS011;9384;48.044;11.616;2022-12-17T15:40:09;36.57;;;18.40;;
18510;SDS011;9384;48.044;11.616;2022-12-17T15:42:37;37.93;;;19.73;;
18510;SDS011;9384;48.044;11.616;2022-12-17T15:45:22;38.57;;;20.23;;
18510;SDS011;9384;48.044;11.616;2022-12-17T15:47:50;40.67;;;20.03;;
18510;SDS011;9384;48.044;11.616;2022-12-17T15:50:17;44.67;;;20.83;;
18510;SDS011;9384;48.044;11.616;2022-12-17T15:52:44;38.50;;;18.83;;
18510;SDS011;9384;48.044;11.616;2022-12-17T15:55:11;46.30;;;20.17;;
18510;SDS011;9384;48.044;11.616;2022-12-17T15:57:40;31.03;;;17.90;;
18510;SDS011;9384;48.044;11.616;2022-12-17T16:00:07;31.10;;;15.90;;
18510;SDS011;9384;48.044;11.616;2022-12-17T16:02:35;36.77;;;17.20;;
18510;SDS011;9384;48.044;11.616;2022-12-17T16:05:02;32.50;;;17.33;;
18510;SDS011;9384;48.044;11.616;2022-12-17T16:07:29;33.07;;;17.80;;